SCBA

Balmaceda Airport

Airport
ICAO code
SCBA
IATA Code
BBA
Summary
ICAO Region
CARSAM
ICAO Territory
Location

Balmaceda, Coyhaique

Serving
Balmaceda
Elevation
1722 ft
Coordinates
45° 54' 53" S , 71° 41' 31" W
Metar
Observation
SCBA 131500Z 12010KT 9999 OVC035 03/M02 Q0988
Station
Balmaceda
Date/Time
2022-08-13 15:00:00
Wind direction
120°
Wind speed
10 kts
Lowest cloud amount
overcast
Temperature
3°C
Dew point
-2°C
Humidity
69%
QNH
988 hPa
Weather condition
n/a

Balmaceda Airport is an airport in Balmaceda, Chile, serving the Aysén del General Carlos Ibáñez del Campo Region.

Runways

Designator Length Width Surface Rops
9/27 2501 45 ASP No/No

Airport map

Aerial View

SKYbrary Partners:

Safety knowledge contributed by: